Time;durP1;ratioP1;P1;durP2;ratioP2;P2;SDS_P1;SDS_P2;PMS_P1;PMS_P2;Temp;Humidity;BMP_temperature;BMP_pressure;BME280_temperature;BME280_humidity;BME280_pressure;Samples;Min_cycle;Max_cycle;Signal;HPM_P1;HPM_P2
2024/01/04 00:02:09;;;;;;;0.40;0.40;;;7.40;99.90;;;;;;6250061;23;20218;-80
2024/01/04 00:04:40;;;;;;;0.50;0.50;;;7.30;99.90;;;;;;6250218;23;20206;-81
2024/01/04 00:07:07;;;;;;;0.50;0.50;;;7.30;99.90;;;;;;6250346;23;20382;-81
2024/01/04 00:09:35;;;;;;;2.55;1.20;;;7.20;99.90;;;;;;6250179;23;20183;-78
2024/01/04 00:12:02;;;;;;;0.77;0.77;;;7.20;99.90;;;;;;6250573;23;20218;-79
2024/01/04 00:14:30;;;;;;;0.70;0.70;;;7.10;99.90;;;;;;6250091;23;20243;-79
2024/01/04 00:16:58;;;;;;;1.13;1.13;;;7.20;99.90;;;;;;6250833;23;20183;-79
2024/01/04 00:19:25;;;;;;;1.38;0.93;;;7.30;99.90;;;;;;6250764;23;20247;-79
2024/01/04 00:21:52;;;;;;;0.60;0.60;;;7.30;99.90;;;;;;6250936;23;20495;-79
2024/01/04 00:24:19;;;;;;;0.98;0.98;;;7.50;99.90;;;;;;6251336;23;20230;-79
2024/01/04 00:26:46;;;;;;;0.75;0.70;;;7.60;99.90;;;;;;6235114;23;20195;-79
2024/01/04 00:29:13;;;;;;;0.50;0.50;;;7.70;99.90;;;;;;6254235;23;20219;-79
2024/01/04 00:31:41;;;;;;;3.03;2.92;;;7.90;99.90;;;;;;6252661;23;20234;-80
2024/01/04 00:34:08;;;;;;;0.68;0.68;;;7.90;99.90;;;;;;6226137;23;20517;-80
2024/01/04 00:36:36;;;;;;;1.23;1.17;;;8.00;99.90;;;;;;6226263;23;20211;-79
2024/01/04 00:39:03;;;;;;;0.63;0.63;;;7.90;99.90;;;;;;6225644;23;20242;-79
2024/01/04 00:41:32;;;;;;;0.70;0.70;;;7.90;99.90;;;;;;6251832;23;20242;-79
2024/01/04 00:43:59;;;;;;;0.45;0.45;;;7.90;99.90;;;;;;6224703;23;20195;-77
2024/01/04 00:46:26;;;;;;;0.40;0.40;;;7.90;99.90;;;;;;6250253;23;20246;-81
2024/01/04 00:48:53;;;;;;;0.50;0.50;;;7.90;99.90;;;;;;6252087;23;20175;-80
2024/01/04 00:51:21;;;;;;;0.80;0.80;;;7.90;99.90;;;;;;6224883;23;20430;-79
2024/01/04 00:53:49;;;;;;;0.50;0.50;;;8.00;99.90;;;;;;6224673;23;20250;-80
2024/01/04 00:56:21;;;;;;;1.25;0.98;;;8.00;99.90;;;;;;6251217;23;20363;-81
2024/01/04 00:58:48;;;;;;;0.88;0.88;;;7.80;99.90;;;;;;6250579;23;20207;-80
2024/01/04 01:01:16;;;;;;;0.50;0.50;;;7.90;99.90;;;;;;6258623;23;20175;-80
2024/01/04 01:03:43;;;;;;;0.50;0.50;;;7.90;99.90;;;;;;6271779;23;20222;-81
2024/01/04 01:06:11;;;;;;;0.50;0.50;;;7.90;99.90;;;;;;6240588;22;20180;-81
2024/01/04 01:08:38;;;;;;;2.15;2.05;;;8.00;99.90;;;;;;6250013;23;20239;-81
2024/01/04 01:11:10;;;;;;;0.80;0.80;;;7.90;99.90;;;;;;6250148;23;20168;-80
2024/01/04 01:13:39;;;;;;;1.02;1.02;;;7.90;99.90;;;;;;6250236;23;20221;-80
2024/01/04 01:16:08;;;;;;;0.70;0.70;;;7.90;99.90;;;;;;6250206;23;20184;-80
2024/01/04 01:18:35;;;;;;;0.40;0.40;;;8.00;99.90;;;;;;6223488;23;20219;-80
2024/01/04 01:21:03;;;;;;;0.40;0.40;;;8.00;99.90;;;;;;6250320;23;20190;-80
2024/01/04 01:23:30;;;;;;;0.55;0.55;;;8.10;99.90;;;;;;6223744;23;20241;-81
2024/01/04 01:25:57;;;;;;;0.40;0.40;;;8.00;99.90;;;;;;6249958;23;20182;-79
2024/01/04 01:28:24;;;;;;;0.50;0.50;;;8.00;99.90;;;;;;6249646;23;20194;-79
2024/01/04 01:30:51;;;;;;;0.50;0.50;;;8.00;99.90;;;;;;6249398;23;20243;-78
2024/01/04 01:33:18;;;;;;;0.65;0.65;;;8.00;99.90;;;;;;6249169;23;20233;-78
2024/01/04 01:35:45;;;;;;;0.50;0.50;;;8.00;99.90;;;;;;6248969;23;20242;-80
2024/01/04 01:38:12;;;;;;;0.50;0.50;;;8.00;99.90;;;;;;6249252;23;20242;-79
2024/01/04 01:40:39;;;;;;;0.57;0.57;;;8.10;99.90;;;;;;6264752;22;20219;-79
2024/01/04 01:43:06;;;;;;;0.47;0.47;;;8.20;99.90;;;;;;6272282;22;20187;-80
2024/01/04 01:45:33;;;;;;;0.40;0.40;;;8.20;99.90;;;;;;6247524;22;20191;-81
2024/01/04 01:48:00;;;;;;;0.50;0.50;;;8.30;99.90;;;;;;6263427;22;20179;-81
2024/01/04 01:50:28;;;;;;;1.35;1.35;;;8.20;99.90;;;;;;6253393;23;20183;-81
2024/01/04 01:52:55;;;;;;;0.50;0.50;;;8.30;99.90;;;;;;6254563;23;20211;-80
2024/01/04 01:55:25;;;;;;;0.57;0.57;;;8.20;99.90;;;;;;6251170;23;20188;-80
2024/01/04 01:57:52;;;;;;;0.50;0.50;;;8.20;99.90;;;;;;6223597;23;20187;-81
2024/01/04 02:00:21;;;;;;;0.60;0.60;;;8.20;99.90;;;;;;6224223;23;20270;-80
2024/01/04 02:02:48;;;;;;;0.50;0.50;;;8.20;99.90;;;;;;6255093;23;20183;-80
2024/01/04 02:05:16;;;;;;;0.50;0.50;;;8.20;99.90;;;;;;6258907;23;20203;-80
2024/01/04 02:07:45;;;;;;;0.50;0.50;;;8.20;99.90;;;;;;6252607;23;20221;-81
2024/01/04 02:10:13;;;;;;;0.70;0.70;;;8.20;99.90;;;;;;6249680;23;20183;-81
2024/01/04 02:12:41;;;;;;;0.50;0.50;;;8.20;99.90;;;;;;6249497;23;20198;-81
2024/01/04 02:15:08;;;;;;;0.50;0.50;;;8.20;99.90;;;;;;6249517;23;20195;-80
2024/01/04 02:17:36;;;;;;;0.50;0.50;;;8.10;99.90;;;;;;6249203;23;20183;-81
2024/01/04 02:20:03;;;;;;;0.85;0.85;;;8.10;99.90;;;;;;6248285;23;20230;-81
2024/01/04 02:22:30;;;;;;;0.50;0.50;;;8.10;99.90;;;;;;6250647;23;20182;-81
2024/01/04 02:24:57;;;;;;;0.50;0.50;;;8.20;99.90;;;;;;6250841;23;20270;-81
2024/01/04 02:27:24;;;;;;;1.13;1.08;;;8.20;99.90;;;;;;6250089;23;20232;-80
2024/01/04 02:29:51;;;;;;;0.50;0.50;;;8.20;99.90;;;;;;6249160;23;20215;-81
2024/01/04 02:32:18;;;;;;;0.50;0.50;;;8.10;99.90;;;;;;6248276;23;20183;-82
2024/01/04 02:34:45;;;;;;;0.50;0.50;;;8.10;99.90;;;;;;6249783;23;20187;-80
2024/01/04 02:37:12;;;;;;;0.50;0.50;;;8.20;99.90;;;;;;6250513;23;20207;-81
2024/01/04 02:39:39;;;;;;;0.60;0.60;;;8.10;99.90;;;;;;6248971;23;20523;-83
2024/01/04 02:42:06;;;;;;;0.50;0.50;;;8.10;99.90;;;;;;6249533;23;20183;-83
2024/01/04 02:44:33;;;;;;;0.50;0.50;;;8.00;99.90;;;;;;6250618;23;20365;-79
2024/01/04 02:47:01;;;;;;;0.40;0.40;;;8.00;99.90;;;;;;6250052;23;20206;-80
2024/01/04 02:49:27;;;;;;;0.50;0.50;;;7.80;99.90;;;;;;6249649;23;20211;-80
2024/01/04 02:51:54;;;;;;;0.50;0.50;;;7.80;99.90;;;;;;6249048;23;20174;-81
2024/01/04 02:54:22;;;;;;;0.40;0.40;;;7.70;99.90;;;;;;6249129;23;20180;-79
2024/01/04 02:56:51;;;;;;;1.60;1.50;;;7.60;99.90;;;;;;6249611;23;20183;-79
2024/01/04 02:59:18;;;;;;;0.40;0.40;;;7.60;99.90;;;;;;6249526;23;20222;-79
2024/01/04 03:01:48;;;;;;;0.60;0.60;;;7.50;99.90;;;;;;6252444;23;20337;-81
2024/01/04 03:04:15;;;;;;;0.50;0.50;;;7.50;99.90;;;;;;6254116;23;20231;-81
2024/01/04 03:06:42;;;;;;;12.02;1.67;;;7.50;99.90;;;;;;6250835;23;20243;-81
2024/01/04 03:09:09;;;;;;;0.40;0.40;;;7.50;99.90;;;;;;6249985;23;20184;-79
2024/01/04 03:11:36;;;;;;;0.50;0.50;;;7.50;99.90;;;;;;6249822;23;20250;-79
2024/01/04 03:14:04;;;;;;;0.40;0.40;;;7.50;99.90;;;;;;6249148;23;20573;-80
2024/01/04 03:16:31;;;;;;;0.50;0.50;;;7.50;99.90;;;;;;6249111;23;20195;-80
2024/01/04 03:18:58;;;;;;;0.40;0.40;;;7.40;99.90;;;;;;6249764;23;20207;-77
2024/01/04 03:21:26;;;;;;;0.40;0.40;;;7.40;99.90;;;;;;6254868;23;20436;-79
2024/01/04 03:23:53;;;;;;;0.50;0.50;;;7.40;99.90;;;;;;6250710;23;20218;-80
2024/01/04 03:26:20;;;;;;;0.40;0.40;;;7.30;99.90;;;;;;6222799;23;20706;-78
2024/01/04 03:28:47;;;;;;;0.40;0.40;;;7.20;99.90;;;;;;6250235;23;20484;-80
2024/01/04 03:31:14;;;;;;;1.75;0.90;;;7.10;99.90;;;;;;6252616;23;20190;-80
2024/01/04 03:33:41;;;;;;;0.70;0.70;;;7.10;99.90;;;;;;6231905;23;20173;-81
2024/01/04 03:36:10;;;;;;;0.63;0.63;;;7.10;99.90;;;;;;6261249;23;20379;-80
2024/01/04 03:38:38;;;;;;;0.40;0.40;;;7.10;99.90;;;;;;6255073;23;20183;-79
2024/01/04 03:41:05;;;;;;;0.40;0.40;;;7.00;99.90;;;;;;6250665;23;20188;-81
2024/01/04 03:43:33;;;;;;;0.40;0.40;;;7.00;99.90;;;;;;6252860;23;20214;-81
2024/01/04 03:46:08;;;;;;;2.90;1.48;;;7.00;99.90;;;;;;6254398;23;20522;-81
2024/01/04 03:48:35;;;;;;;0.40;0.40;;;7.00;99.90;;;;;;6255129;23;20183;-80
2024/01/04 03:51:03;;;;;;;0.55;0.55;;;7.00;99.90;;;;;;6252515;23;20237;-79
2024/01/04 03:53:30;;;;;;;0.40;0.40;;;7.10;99.90;;;;;;6250900;23;20184;-80
2024/01/04 03:55:57;;;;;;;0.85;0.85;;;7.00;99.90;;;;;;6250274;23;20218;-80
2024/01/04 03:58:24;;;;;;;1.02;1.02;;;7.00;99.90;;;;;;6249911;23;20547;-80
2024/01/04 04:00:53;;;;;;;0.88;0.88;;;7.10;99.90;;;;;;6224001;23;20246;-80
2024/01/04 04:03:20;;;;;;;0.40;0.40;;;7.10;99.90;;;;;;6250562;23;20188;-80
2024/01/04 04:05:47;;;;;;;0.60;0.60;;;7.10;99.90;;;;;;6199093;23;20271;-80
2024/01/04 04:08:14;;;;;;;0.60;0.60;;;7.10;99.90;;;;;;6223088;23;20183;-80
2024/01/04 04:10:42;;;;;;;0.40;0.40;;;7.10;99.90;;;;;;6250091;23;20180;-80
2024/01/04 04:13:09;;;;;;;0.57;0.57;;;7.10;99.90;;;;;;6249564;23;20507;-78
2024/01/04 04:15:36;;;;;;;0.40;0.40;;;7.10;99.90;;;;;;6250004;23;20190;-80
2024/01/04 04:18:04;;;;;;;0.63;0.63;;;7.20;99.90;;;;;;6248915;23;20246;-81
2024/01/04 04:20:32;;;;;;;0.40;0.40;;;7.20;99.90;;;;;;6223911;23;20191;-80
2024/01/04 04:22:59;;;;;;;0.50;0.50;;;7.20;99.90;;;;;;6251086;23;20184;-79
2024/01/04 04:25:27;;;;;;;0.40;0.40;;;7.20;99.90;;;;;;6225005;23;20204;-77
2024/01/04 04:27:56;;;;;;;0.40;0.40;;;7.20;99.90;;;;;;6251466;23;20184;-79
2024/01/04 04:30:23;;;;;;;1.08;1.05;;;7.20;99.90;;;;;;6250813;23;20242;-80
2024/01/04 04:32:50;;;;;;;0.50;0.50;;;7.20;99.90;;;;;;6251766;23;20191;-80
2024/01/04 04:35:18;;;;;;;0.40;0.40;;;7.20;99.90;;;;;;6252008;23;20190;-79
2024/01/04 04:37:45;;;;;;;0.40;0.40;;;7.30;99.90;;;;;;6250254;23;20176;-81
2024/01/04 04:40:12;;;;;;;0.40;0.40;;;7.30;99.90;;;;;;6249490;23;20246;-80
2024/01/04 04:42:41;;;;;;;0.40;0.40;;;7.30;99.90;;;;;;6251228;23;20190;-81
2024/01/04 04:45:08;;;;;;;0.40;0.40;;;7.30;99.90;;;;;;6250496;23;20531;-79
2024/01/04 04:47:36;;;;;;;0.40;0.40;;;7.30;99.90;;;;;;6250024;23;20183;-81
2024/01/04 04:50:04;;;;;;;0.40;0.40;;;7.30;99.90;;;;;;6251676;23;20191;-79
2024/01/04 04:52:31;;;;;;;0.40;0.40;;;7.30;99.90;;;;;;6226691;23;20365;-78
2024/01/04 04:54:58;;;;;;;0.40;0.40;;;7.20;99.90;;;;;;6253394;23;20187;-80
2024/01/04 04:57:25;;;;;;;0.57;0.57;;;7.30;99.90;;;;;;6225452;23;20606;-81
2024/01/04 04:59:52;;;;;;;0.40;0.40;;;7.20;99.90;;;;;;6250682;23;20199;-80
2024/01/04 05:02:19;;;;;;;0.40;0.40;;;7.20;99.90;;;;;;6250575;23;20374;-80
2024/01/04 05:04:46;;;;;;;0.40;0.40;;;7.20;99.90;;;;;;6249891;23;20228;-79
2024/01/04 05:07:14;;;;;;;0.40;0.40;;;7.20;99.90;;;;;;6249384;23;20219;-79
2024/01/04 05:09:41;;;;;;;0.40;0.40;;;7.20;99.90;;;;;;6249792;23;20183;-81
2024/01/04 05:12:08;;;;;;;0.40;0.40;;;7.10;99.90;;;;;;6249216;23;20243;-80
2024/01/04 05:14:35;;;;;;;0.40;0.40;;;7.10;99.90;;;;;;6248943;23;20188;-79
2024/01/04 05:17:02;;;;;;;0.40;0.40;;;7.00;99.90;;;;;;6248627;23;20183;-80
2024/01/04 05:19:29;;;;;;;0.40;0.40;;;7.00;99.90;;;;;;6249086;23;20183;-80
2024/01/04 05:21:57;;;;;;;0.40;0.40;;;7.00;99.90;;;;;;6249496;23;20184;-81
2024/01/04 05:24:25;;;;;;;0.40;0.40;;;7.00;99.90;;;;;;6248258;23;20390;-81
2024/01/04 05:26:52;;;;;;;0.40;0.40;;;7.10;99.90;;;;;;6249118;23;20184;-81
2024/01/04 05:29:21;;;;;;;0.40;0.40;;;7.00;99.90;;;;;;6248827;23;20210;-80
2024/01/04 05:31:48;;;;;;;0.40;0.40;;;7.00;99.90;;;;;;6248456;23;20184;-80
2024/01/04 05:34:18;;;;;;;0.40;0.40;;;7.00;99.90;;;;;;6248565;23;20185;-80
2024/01/04 05:36:46;;;;;;;0.40;0.40;;;7.00;99.90;;;;;;6248855;23;20183;-79
2024/01/04 05:39:13;;;;;;;0.40;0.40;;;7.00;99.90;;;;;;6248282;23;20499;-80
2024/01/04 05:41:40;;;;;;;0.40;0.40;;;7.10;99.90;;;;;;6248447;23;20179;-79
2024/01/04 05:44:07;;;;;;;0.40;0.40;;;7.10;99.90;;;;;;6248129;23;20183;-80
2024/01/04 05:46:34;;;;;;;0.40;0.40;;;7.10;99.90;;;;;;6248365;23;20219;-80
2024/01/04 05:49:02;;;;;;;0.40;0.40;;;7.00;99.90;;;;;;6248496;23;20191;-80
2024/01/04 05:51:29;;;;;;;0.40;0.40;;;7.10;99.90;;;;;;6222271;23;20190;-80
2024/01/04 05:54:09;;;;;;;0.40;0.40;;;7.00;99.90;;;;;;6248929;23;20352;-80
2024/01/04 05:56:36;;;;;;;0.40;0.40;;;7.00;99.90;;;;;;6248747;23;20183;-81
2024/01/04 05:59:03;;;;;;;1.05;1.05;;;7.00;99.90;;;;;;6248791;23;20270;-79
2024/01/04 06:01:32;;;;;;;0.40;0.40;;;7.00;99.90;;;;;;6248808;23;20501;-80
2024/01/04 06:03:59;;;;;;;0.40;0.40;;;7.00;99.90;;;;;;6248422;23;20273;-79
2024/01/04 06:06:26;;;;;;;0.40;0.40;;;7.00;99.90;;;;;;6249228;23;20207;-82
2024/01/04 06:08:53;;;;;;;0.40;0.40;;;7.00;99.90;;;;;;6249421;23;20207;-79
2024/01/04 06:11:20;;;;;;;0.40;0.40;;;7.00;99.90;;;;;;6249172;23;20191;-80
2024/01/04 06:13:47;;;;;;;0.50;0.50;;;7.00;99.90;;;;;;6222926;23;20251;-82
2024/01/04 06:16:17;;;;;;;0.40;0.40;;;7.00;99.90;;;;;;6249673;23;20226;-80
2024/01/04 06:18:44;;;;;;;1.02;0.98;;;6.90;99.90;;;;;;6248895;23;20491;-80
2024/01/04 06:21:12;;;;;;;0.40;0.40;;;6.90;99.90;;;;;;6249182;23;20258;-79
2024/01/04 06:23:38;;;;;;;0.40;0.40;;;6.90;99.90;;;;;;6250738;23;20233;-79
2024/01/04 06:26:05;;;;;;;0.50;0.50;;;6.90;99.90;;;;;;6257983;22;20217;-79
2024/01/04 06:28:32;;;;;;;0.40;0.40;;;6.90;99.90;;;;;;6264020;22;20187;-81
2024/01/04 06:30:59;;;;;;;0.40;0.40;;;6.90;99.90;;;;;;6264271;23;20176;-78
2024/01/04 06:33:26;;;;;;;0.40;0.40;;;6.90;99.90;;;;;;6264123;22;20168;-79
2024/01/04 06:35:54;;;;;;;0.80;0.80;;;6.80;99.90;;;;;;6251342;23;20194;-80
2024/01/04 06:38:24;;;;;;;0.50;0.50;;;6.80;99.90;;;;;;6250078;23;20202;-79
2024/01/04 06:40:52;;;;;;;0.40;0.40;;;6.70;99.90;;;;;;6250164;23;20180;-78
2024/01/04 06:43:19;;;;;;;0.40;0.40;;;6.60;99.90;;;;;;6257658;23;20175;-80
2024/01/04 06:45:46;;;;;;;0.50;0.50;;;6.50;99.90;;;;;;6254116;23;20270;-78
2024/01/04 06:48:13;;;;;;;1.05;0.73;;;6.50;99.90;;;;;;6221835;23;20207;-78
2024/01/04 06:50:45;;;;;;;0.40;0.40;;;6.50;99.90;;;;;;6248138;23;20191;-80
2024/01/04 06:53:15;;;;;;;0.55;0.55;;;6.50;99.90;;;;;;6221195;23;20171;-81
2024/01/04 06:55:43;;;;;;;0.93;0.93;;;6.60;99.90;;;;;;6247098;23;20219;-78
2024/01/04 06:58:10;;;;;;;0.40;0.40;;;6.70;99.90;;;;;;6247869;23;20205;-79
2024/01/04 07:00:37;;;;;;;0.60;0.60;;;6.70;99.90;;;;;;6247906;23;20238;-80
2024/01/04 07:03:05;;;;;;;0.50;0.50;;;6.80;99.90;;;;;;6248305;23;20190;-79
2024/01/04 07:05:33;;;;;;;1.77;1.70;;;6.80;99.90;;;;;;6220767;23;20294;-79
2024/01/04 07:08:01;;;;;;;0.57;0.57;;;6.80;99.90;;;;;;6245932;23;20243;-79
2024/01/04 07:10:30;;;;;;;0.40;0.40;;;6.80;99.90;;;;;;6247478;23;20184;-81
2024/01/04 07:12:57;;;;;;;0.60;0.60;;;6.90;99.90;;;;;;6247701;23;20216;-78
2024/01/04 07:15:24;;;;;;;0.73;0.73;;;6.90;99.90;;;;;;6220694;23;20534;-79
2024/01/04 07:17:51;;;;;;;8.48;1.23;;;6.90;99.90;;;;;;6246795;23;20183;-79
2024/01/04 07:20:19;;;;;;;1.05;1.05;;;6.90;99.90;;;;;;6247440;23;20235;-80
2024/01/04 07:22:52;;;;;;;0.40;0.40;;;6.90;99.90;;;;;;6246363;23;20251;-81
2024/01/04 07:25:22;;;;;;;0.50;0.50;;;7.00;99.90;;;;;;6246269;23;20267;-81
2024/01/04 07:27:49;;;;;;;0.40;0.40;;;7.00;99.90;;;;;;6247583;23;20170;-81
2024/01/04 07:30:17;;;;;;;0.50;0.50;;;7.00;99.90;;;;;;6247496;23;20243;-81
2024/01/04 07:32:45;;;;;;;0.60;0.60;;;7.10;99.90;;;;;;6248200;23;20190;-81
2024/01/04 07:35:12;;;;;;;0.50;0.50;;;7.10;99.90;;;;;;6249051;23;20187;-80
2024/01/04 07:37:44;;;;;;;0.57;0.57;;;7.20;99.90;;;;;;6249175;23;20391;-79
2024/01/04 07:40:12;;;;;;;0.60;0.60;;;7.10;99.90;;;;;;6248218;23;20726;-80
2024/01/04 07:42:39;;;;;;;0.40;0.40;;;7.20;99.90;;;;;;6248138;23;20218;-81
2024/01/04 07:45:07;;;;;;;0.75;0.75;;;7.20;99.90;;;;;;6247556;23;20451;-80
2024/01/04 07:47:37;;;;;;;0.40;0.40;;;7.20;99.90;;;;;;6221380;23;20671;-80
2024/01/04 07:50:05;;;;;;;0.60;0.60;;;7.20;99.90;;;;;;6248693;23;20257;-79
2024/01/04 07:52:32;;;;;;;0.50;0.50;;;7.20;99.90;;;;;;6248365;23;20459;-80
2024/01/04 07:54:59;;;;;;;0.40;0.40;;;7.20;99.90;;;;;;6252433;23;20219;-80
2024/01/04 07:57:31;;;;;;;0.50;0.50;;;7.20;99.90;;;;;;6269259;23;20152;-80
2024/01/04 07:59:58;;;;;;;0.50;0.50;;;7.20;99.90;;;;;;6266858;22;20207;-79
2024/01/04 08:02:28;;;;;;;0.40;0.40;;;7.30;99.90;;;;;;6247203;23;20494;-81
2024/01/04 08:04:56;;;;;;;3.60;2.10;;;7.30;99.90;;;;;;6247896;23;20400;-80
2024/01/04 08:07:23;;;;;;;1.90;1.48;;;7.30;99.90;;;;;;6247562;23;20190;-80
2024/01/04 08:09:51;;;;;;;0.50;0.50;;;7.30;99.90;;;;;;6249266;23;20238;-80
2024/01/04 08:12:18;;;;;;;0.90;0.90;;;7.20;99.90;;;;;;6222816;23;20207;-79
2024/01/04 08:14:45;;;;;;;1.25;1.25;;;7.20;99.90;;;;;;6247818;23;20191;-79
2024/01/04 08:17:12;;;;;;;0.40;0.40;;;7.10;99.90;;;;;;6249885;23;20511;-81
2024/01/04 08:19:39;;;;;;;0.40;0.40;;;7.10;99.90;;;;;;6251911;23;20211;-79
2024/01/04 08:22:06;;;;;;;1.10;1.10;;;7.10;99.90;;;;;;6224616;23;20184;-80
2024/01/04 08:24:33;;;;;;;1.67;1.60;;;7.10;99.90;;;;;;6249697;23;20215;-80
2024/01/04 08:27:00;;;;;;;1.10;1.00;;;7.30;99.90;;;;;;6249684;23;20207;-79
2024/01/04 08:29:27;;;;;;;0.40;0.40;;;7.10;99.90;;;;;;6249113;23;20246;-79
2024/01/04 08:31:54;;;;;;;0.60;0.60;;;7.10;99.90;;;;;;6254490;23;20182;-80
2024/01/04 08:34:21;;;;;;;0.50;0.50;;;7.20;99.90;;;;;;6249364;23;20243;-79
2024/01/04 08:36:49;;;;;;;0.40;0.40;;;7.20;99.90;;;;;;6249170;23;20233;-79
2024/01/04 08:39:16;;;;;;;0.40;0.40;;;7.20;99.90;;;;;;6249757;23;20239;-82
2024/01/04 08:41:43;;;;;;;0.77;0.77;;;7.30;99.90;;;;;;6248289;23;20281;-80
2024/01/04 08:44:10;;;;;;;2.67;2.55;;;7.30;99.90;;;;;;6247887;23;20184;-81
2024/01/04 08:46:37;;;;;;;0.40;0.40;;;7.30;99.90;;;;;;6248982;23;20195;-81
2024/01/04 08:49:05;;;;;;;1.25;1.15;;;7.30;99.90;;;;;;6249043;23;20569;-80
2024/01/04 08:51:33;;;;;;;0.40;0.40;;;7.30;99.90;;;;;;6223326;23;20217;-79
2024/01/04 08:54:01;;;;;;;0.50;0.50;;;7.30;99.90;;;;;;6250109;23;20250;-80
2024/01/04 08:56:28;;;;;;;0.40;0.40;;;7.40;99.90;;;;;;6248030;23;20176;-80
2024/01/04 08:58:55;;;;;;;0.40;0.40;;;7.30;99.90;;;;;;6249568;23;20262;-80
2024/01/04 09:01:21;;;;;;;0.40;0.40;;;7.30;99.90;;;;;;6249318;23;20243;-81
2024/01/04 09:03:49;;;;;;;0.40;0.40;;;7.30;99.90;;;;;;6248766;23;20183;-79
2024/01/04 09:06:16;;;;;;;0.40;0.40;;;7.20;99.90;;;;;;6248567;23;20273;-80
2024/01/04 09:08:43;;;;;;;0.40;0.40;;;7.30;99.90;;;;;;6247847;23;20207;-80
2024/01/04 09:11:10;;;;;;;0.40;0.40;;;7.30;99.90;;;;;;6248716;23;20195;-80
2024/01/04 09:13:37;;;;;;;0.40;0.40;;;7.30;99.90;;;;;;6250464;23;20246;-81
2024/01/04 09:16:04;;;;;;;0.40;0.40;;;7.30;99.90;;;;;;6248393;23;20584;-80
2024/01/04 09:18:33;;;;;;;0.77;0.77;;;7.30;99.90;;;;;;6248895;23;20229;-81
2024/01/04 09:21:00;;;;;;;0.40;0.40;;;7.30;99.90;;;;;;6222689;23;20199;-80
2024/01/04 09:23:27;;;;;;;0.60;0.60;;;7.30;99.90;;;;;;6249338;23;20179;-81
2024/01/04 09:25:54;;;;;;;0.40;0.40;;;7.20;99.90;;;;;;6222085;23;20203;-80
2024/01/04 09:28:24;;;;;;;0.40;0.40;;;7.10;99.90;;;;;;6223759;23;20221;-79
2024/01/04 09:30:51;;;;;;;0.50;0.50;;;7.10;99.90;;;;;;6249327;23;20250;-80
2024/01/04 09:33:19;;;;;;;0.30;0.30;;;7.10;99.90;;;;;;6221078;23;20188;-80
2024/01/04 09:35:46;;;;;;;0.40;0.40;;;7.10;99.90;;;;;;6247427;23;20247;-80
2024/01/04 09:38:13;;;;;;;0.40;0.40;;;7.20;99.90;;;;;;6247532;23;20249;-80
2024/01/04 09:40:40;;;;;;;0.40;0.40;;;7.10;99.90;;;;;;6247964;23;20184;-80
2024/01/04 09:43:09;;;;;;;0.45;0.45;;;7.20;99.90;;;;;;6249211;23;20207;-79
2024/01/04 09:45:38;;;;;;;0.40;0.40;;;7.30;99.90;;;;;;6221943;23;20247;-81
2024/01/04 09:48:10;;;;;;;0.40;0.40;;;7.40;99.90;;;;;;6249803;23;20190;-78
2024/01/04 09:50:53;;;;;;;0.40;0.40;;;7.50;99.90;;;;;;6261230;23;20183;-80
2024/01/04 09:53:21;;;;;;;0.40;0.40;;;7.50;99.90;;;;;;6256790;23;20217;-81
2024/01/04 09:55:48;;;;;;;0.50;0.50;;;7.60;99.90;;;;;;6249744;23;20234;-80
2024/01/04 09:58:15;;;;;;;0.40;0.40;;;7.60;99.90;;;;;;6250025;23;20184;-81
2024/01/04 10:00:42;;;;;;;0.40;0.40;;;7.70;99.90;;;;;;6248242;23;20495;-81
2024/01/04 10:03:12;;;;;;;0.40;0.40;;;7.70;99.90;;;;;;6248551;23;20195;-78
2024/01/04 10:05:42;;;;;;;0.73;0.73;;;7.80;99.90;;;;;;6248070;23;20211;-80
2024/01/04 10:08:22;;;;;;;0.98;0.98;;;7.70;99.90;;;;;;6221685;23;20240;-80
2024/01/04 10:10:53;;;;;;;0.40;0.40;;;7.70;99.90;;;;;;6247644;23;20243;-80
2024/01/04 10:13:20;;;;;;;0.68;0.68;;;7.70;99.90;;;;;;6221849;23;20330;-80
2024/01/04 10:15:48;;;;;;;0.95;0.95;;;7.70;99.90;;;;;;6247623;23;20360;-80
2024/01/04 10:18:17;;;;;;;0.40;0.40;;;7.70;99.90;;;;;;6247395;23;20183;-82
2024/01/04 10:21:04;;;;;;;0.40;0.40;;;7.70;99.90;;;;;;6221820;23;20210;-81
2024/01/04 10:23:32;;;;;;;0.45;0.45;;;7.70;99.90;;;;;;6248517;23;20178;-79
2024/01/04 10:26:13;;;;;;;0.40;0.40;;;7.80;99.90;;;;;;6248822;23;20211;-80
2024/01/04 10:28:40;;;;;;;0.40;0.40;;;7.80;99.90;;;;;;6248195;23;20188;-80
2024/01/04 10:31:11;;;;;;;0.50;0.50;;;7.90;99.90;;;;;;6249056;23;20214;-81
2024/01/04 10:33:38;;;;;;;0.50;0.50;;;7.90;99.90;;;;;;6248038;23;20223;-82
2024/01/04 10:36:11;;;;;;;0.50;0.50;;;7.80;99.90;;;;;;6248448;23;20188;-78
2024/01/04 10:38:39;;;;;;;0.50;0.50;;;7.90;99.90;;;;;;6221418;23;20251;-79
2024/01/04 10:41:06;;;;;;;0.40;0.40;;;8.00;99.90;;;;;;6247270;23;20567;-80
2024/01/04 10:43:34;;;;;;;0.40;0.40;;;8.10;99.90;;;;;;6246649;23;20184;-81
2024/01/04 10:46:10;;;;;;;0.40;0.40;;;8.10;99.90;;;;;;6248500;23;20252;-80
2024/01/04 10:48:38;;;;;;;0.73;0.73;;;8.10;99.90;;;;;;6248013;23;20231;-79
2024/01/04 10:51:09;;;;;;;0.60;0.60;;;8.30;99.90;;;;;;6222267;23;20195;-80
2024/01/04 10:53:38;;;;;;;0.50;0.50;;;8.50;99.90;;;;;;6222211;23;20164;-79
2024/01/04 10:56:08;;;;;;;1.13;1.13;;;8.50;99.90;;;;;;6221712;23;20510;-78
2024/01/04 10:58:36;;;;;;;0.50;0.50;;;8.50;99.90;;;;;;6250286;23;20249;-80
2024/01/04 11:01:05;;;;;;;0.50;0.50;;;8.50;99.90;;;;;;6251574;23;20187;-81
2024/01/04 11:03:32;;;;;;;0.50;0.50;;;8.50;99.90;;;;;;6227410;23;20217;-81
2024/01/04 11:06:02;;;;;;;0.50;0.50;;;8.40;99.90;;;;;;6250248;23;20204;-81
2024/01/04 11:08:31;;;;;;;0.50;0.50;;;8.30;99.90;;;;;;6268733;23;20175;-80
2024/01/04 11:11:00;;;;;;;0.50;0.50;;;8.30;99.90;;;;;;6266345;23;20203;-80
2024/01/04 11:13:27;;;;;;;0.50;0.50;;;8.30;99.90;;;;;;6256400;23;20186;-79
2024/01/04 11:15:57;;;;;;;0.60;0.60;;;8.30;99.90;;;;;;6256899;23;20518;-79
2024/01/04 11:18:36;;;;;;;0.50;0.50;;;8.20;99.90;;;;;;6261549;23;20164;-81
2024/01/04 11:21:35;;;;;;;0.52;0.52;;;8.20;99.90;;;;;;6251892;23;20258;-80
2024/01/04 11:24:05;;;;;;;0.52;0.52;;;8.30;99.90;;;;;;6192904;23;20199;-80
2024/01/04 11:26:57;;;;;;;0.47;0.47;;;8.30;99.90;;;;;;6249357;23;20214;-81
2024/01/04 11:29:26;;;;;;;0.75;0.75;;;8.40;99.90;;;;;;6248859;23;20330;-78
2024/01/04 11:31:58;;;;;;;0.40;0.40;;;8.40;99.90;;;;;;6222965;23;20207;-82
2024/01/04 11:34:26;;;;;;;0.50;0.50;;;8.70;99.90;;;;;;6248425;23;20168;-79
2024/01/04 11:37:16;;;;;;;0.73;0.73;;;8.60;99.90;;;;;;6247384;23;20171;-81
2024/01/04 11:39:56;;;;;;;0.50;0.50;;;8.60;99.90;;;;;;6247842;23;20233;-80
2024/01/04 11:42:35;;;;;;;0.50;0.50;;;8.70;99.90;;;;;;6247914;23;20782;-79
2024/01/04 11:45:06;;;;;;;0.50;0.50;;;8.80;99.90;;;;;;6247919;23;20247;-80
2024/01/04 11:47:39;;;;;;;0.60;0.60;;;8.70;99.90;;;;;;6247536;23;20218;-80
2024/01/04 11:50:16;;;;;;;0.50;0.50;;;8.70;99.90;;;;;;6249577;23;20218;-80
2024/01/04 11:52:47;;;;;;;0.50;0.50;;;8.80;99.90;;;;;;6249440;23;20160;-81
2024/01/04 11:55:25;;;;;;;0.50;0.50;;;8.80;99.90;;;;;;6250237;23;20385;-79
2024/01/04 11:58:08;;;;;;;0.65;0.65;;;8.80;99.90;;;;;;6250555;23;20190;-78
2024/01/04 12:00:37;;;;;;;0.50;0.50;;;8.90;99.90;;;;;;6224308;23;20364;-80
2024/01/04 12:03:14;;;;;;;0.50;0.50;;;8.90;99.90;;;;;;6248138;23;20188;-79
2024/01/04 12:05:45;;;;;;;0.75;0.75;;;8.90;99.90;;;;;;6223944;23;20179;-79
2024/01/04 12:08:28;;;;;;;0.68;0.68;;;8.90;99.90;;;;;;6249859;23;20723;-78
2024/01/04 12:10:58;;;;;;;0.50;0.50;;;9.00;99.90;;;;;;6250576;23;20183;-79
2024/01/04 12:13:25;;;;;;;0.50;0.50;;;9.00;99.90;;;;;;6251149;23;20500;-80
2024/01/04 12:15:53;;;;;;;0.50;0.50;;;8.90;99.90;;;;;;6251077;23;20203;-82
2024/01/04 12:18:21;;;;;;;0.60;0.60;;;8.90;99.90;;;;;;6250539;23;20531;-79
2024/01/04 12:20:53;;;;;;;0.57;0.57;;;8.90;99.90;;;;;;6250590;23;20175;-80
2024/01/04 12:23:33;;;;;;;0.60;0.60;;;8.90;99.90;;;;;;6250000;23;20654;-79
2024/01/04 12:26:00;;;;;;;0.80;0.80;;;8.90;99.90;;;;;;6250014;23;20669;-79
2024/01/04 12:28:27;;;;;;;0.70;0.70;;;8.90;99.90;;;;;;6249750;23;20183;-80
2024/01/04 12:30:54;;;;;;;0.50;0.50;;;9.00;99.90;;;;;;6250874;23;20246;-78
2024/01/04 12:33:21;;;;;;;0.50;0.50;;;9.00;99.90;;;;;;6250006;23;20380;-79
2024/01/04 12:35:59;;;;;;;0.85;0.85;;;9.00;99.90;;;;;;6249272;23;20191;-81
2024/01/04 12:38:28;;;;;;;0.47;0.47;;;8.90;99.90;;;;;;6248688;23;20221;-80
2024/01/04 12:40:56;;;;;;;0.60;0.60;;;8.70;99.90;;;;;;6249738;23;20194;-81
2024/01/04 12:43:24;;;;;;;0.50;0.50;;;8.60;99.90;;;;;;6249297;23;20184;-81
2024/01/04 12:46:04;;;;;;;0.50;0.50;;;8.30;99.90;;;;;;6249668;23;20247;-79
2024/01/04 12:48:31;;;;;;;0.50;0.50;;;8.00;99.90;;;;;;6248952;23;20186;-79
2024/01/04 12:51:08;;;;;;;0.50;0.50;;;7.60;99.90;;;;;;6249516;23;20270;-77
2024/01/04 12:53:35;;;;;;;0.50;0.50;;;7.40;99.90;;;;;;6251166;23;20194;-79
2024/01/04 12:56:02;;;;;;;0.90;0.90;;;7.40;99.90;;;;;;6257631;23;20347;-80
2024/01/04 12:58:29;;;;;;;0.50;0.50;;;7.30;99.90;;;;;;6261674;23;20183;-79
2024/01/04 13:00:56;;;;;;;0.50;0.50;;;7.30;99.90;;;;;;6268096;23;20212;-79
2024/01/04 13:03:23;;;;;;;0.50;0.50;;;7.10;99.90;;;;;;6271903;22;20182;-79
2024/01/04 13:05:51;;;;;;;0.50;0.50;;;7.10;99.90;;;;;;6261350;23;20195;-80